createdAt,value
2022-11-03T00:02:09.575Z,5.87
2022-11-03T00:04:37.427Z,6.97
2022-11-03T00:07:05.290Z,6.97
2022-11-03T00:09:33.101Z,8.30
2022-11-03T00:12:01.706Z,6.93
2022-11-03T00:14:30.855Z,9.03
2022-11-03T00:16:58.671Z,7.50
2022-11-03T00:19:26.721Z,10.57
2022-11-03T00:21:54.499Z,6.80
2022-11-03T00:24:22.317Z,8.23
2022-11-03T00:26:50.117Z,6.47
2022-11-03T00:29:18.026Z,6.67
2022-11-03T00:31:47.160Z,7.33
2022-11-03T00:34:14.888Z,5.03
2022-11-03T00:36:44.232Z,6.33
2022-11-03T00:39:12.689Z,6.57
2022-11-03T00:41:41.097Z,8.70
2022-11-03T00:44:10.403Z,5.10
2022-11-03T00:46:38.221Z,7.23
2022-11-03T00:49:07.421Z,4.20
2022-11-03T00:51:35.970Z,6.53
2022-11-03T00:54:05.695Z,5.37
2022-11-03T00:56:35.341Z,5.33
2022-11-03T00:59:04.243Z,6.20
2022-11-03T01:01:36.251Z,6.27
2022-11-03T01:04:27.313Z,6.50
2022-11-03T01:06:57.827Z,5.03
2022-11-03T01:09:27.265Z,5.00
2022-11-03T01:11:59.433Z,6.40
2022-11-03T01:14:28.856Z,8.53
2022-11-03T01:16:56.788Z,7.70
2022-11-03T01:19:26.238Z,6.50
2022-11-03T01:21:54.389Z,6.33
2022-11-03T01:24:22.795Z,8.70
2022-11-03T01:26:50.873Z,5.73
2022-11-03T01:29:18.981Z,6.20
2022-11-03T01:31:46.781Z,7.67
2022-11-03T01:34:16.635Z,6.50
2022-11-03T01:36:46.393Z,5.43
2022-11-03T01:39:15.964Z,6.23
2022-11-03T01:41:45.880Z,6.90
2022-11-03T01:44:28.577Z,12.20
2022-11-03T01:47:02.130Z,5.40
2022-11-03T01:49:36.487Z,6.43
2022-11-03T01:52:10.729Z,5.30
2022-11-03T01:54:40.089Z,7.60
2022-11-03T01:57:13.462Z,13.73
2022-11-03T01:59:42.077Z,5.00
2022-11-03T02:02:10.349Z,5.00
2022-11-03T02:04:38.661Z,6.07
2022-11-03T02:07:17.375Z,5.33
2022-11-03T02:09:45.177Z,4.50
2022-11-03T02:12:15.332Z,4.50
2022-11-03T02:14:49.718Z,10.50
2022-11-03T02:17:19.103Z,8.00
2022-11-03T02:19:51.354Z,4.70
2022-11-03T02:22:36.751Z,7.80
2022-11-03T02:25:16.774Z,7.57
2022-11-03T02:27:46.806Z,5.13
2022-11-03T02:30:14.767Z,4.00
2022-11-03T02:32:55.205Z,6.20
2022-11-03T02:35:29.286Z,4.83
2022-11-03T02:38:01.984Z,5.33
2022-11-03T02:40:33.750Z,4.37
2022-11-03T02:43:04.492Z,6.17
2022-11-03T02:45:32.774Z,5.33
2022-11-03T02:48:02.737Z,6.03
2022-11-03T02:50:33.320Z,6.30
2022-11-03T02:53:01.229Z,8.27
2022-11-03T02:55:36.465Z,13.07
2022-11-03T02:58:12.966Z,6.17
2022-11-03T03:00:46.902Z,6.07
2022-11-03T03:03:21.447Z,9.90
2022-11-03T03:05:52.538Z,5.80
2022-11-03T03:08:22.249Z,8.90
2022-11-03T03:10:50.301Z,10.40
2022-11-03T03:13:21.384Z,4.60
2022-11-03T03:15:57.260Z,11.13
2022-11-03T03:18:30.275Z,5.93
2022-11-03T03:21:04.188Z,7.03
2022-11-03T03:23:36.436Z,6.80
2022-11-03T03:26:08.704Z,8.93
2022-11-03T03:28:42.346Z,4.40
2022-11-03T03:31:14.122Z,5.20
2022-11-03T03:33:46.595Z,5.43
2022-11-03T03:36:18.737Z,4.10
2022-11-03T03:38:51.733Z,4.23
2022-11-03T03:41:22.713Z,6.47
2022-11-03T03:43:54.496Z,5.90
2022-11-03T03:46:24.972Z,5.77
2022-11-03T03:48:52.821Z,4.53
2022-11-03T03:51:25.210Z,4.77
2022-11-03T03:53:53.752Z,5.47
2022-11-03T03:56:26.627Z,6.20
2022-11-03T03:58:55.764Z,8.60
2022-11-03T04:01:23.701Z,5.03
2022-11-03T04:03:51.531Z,4.77
2022-11-03T04:06:19.320Z,3.97
2022-11-03T04:08:47.075Z,5.00
2022-11-03T04:11:28.732Z,6.50
2022-11-03T04:14:15.476Z,5.90
2022-11-03T04:17:00.787Z,4.73
2022-11-03T04:19:46.151Z,3.87
2022-11-03T04:22:21.376Z,4.83
2022-11-03T04:24:50.693Z,4.70
2022-11-03T04:27:30.635Z,3.67
2022-11-03T04:30:08.219Z,5.90
2022-11-03T04:32:36.396Z,4.73
2022-11-03T04:35:15.316Z,3.83
2022-11-03T04:37:46.516Z,6.37
2022-11-03T04:40:17.505Z,8.77
2022-11-03T04:42:46.091Z,5.50
2022-11-03T04:45:23.635Z,6.23
2022-11-03T04:47:52.601Z,11.90
2022-11-03T04:50:23.011Z,30.63
2022-11-03T04:52:55.949Z,9.20
2022-11-03T04:55:24.008Z,17.93
2022-11-03T04:57:58.705Z,16.57
2022-11-03T05:00:27.862Z,9.73
2022-11-03T05:02:56.519Z,14.93
2022-11-03T05:05:27.229Z,21.13
2022-11-03T05:07:57.319Z,23.67
2022-11-03T05:10:27.829Z,14.17
2022-11-03T05:12:56.593Z,18.43
2022-11-03T05:15:34.901Z,7.30
2022-11-03T05:18:12.030Z,13.83
2022-11-03T05:20:45.500Z,6.17
2022-11-03T05:23:14.084Z,8.13
2022-11-03T05:25:44.433Z,6.40
2022-11-03T05:28:21.913Z,29.53
2022-11-03T05:30:51.827Z,49.37
2022-11-03T05:33:28.359Z,24.50
2022-11-03T05:35:57.939Z,24.43
2022-11-03T05:38:25.936Z,35.93
2022-11-03T05:40:55.221Z,24.37
2022-11-03T05:43:23.103Z,16.20
2022-11-03T05:45:55.105Z,12.13
2022-11-03T05:48:31.611Z,16.57
2022-11-03T05:51:01.124Z,14.93
2022-11-03T05:53:31.612Z,13.53
2022-11-03T05:56:02.980Z,6.10
2022-11-03T05:58:35.912Z,12.10
2022-11-03T06:01:11.781Z,4.63
2022-11-03T06:03:40.522Z,5.70
2022-11-03T06:06:17.279Z,18.87
2022-11-03T06:08:46.255Z,7.67
2022-11-03T06:11:22.373Z,22.10
2022-11-03T06:13:50.104Z,15.73
2022-11-03T06:16:38.266Z,11.20
2022-11-03T06:19:19.391Z,11.03
2022-11-03T06:21:48.110Z,6.97
2022-11-03T06:24:18.040Z,9.97
2022-11-03T06:26:47.512Z,9.27
2022-11-03T06:29:17.378Z,8.13
2022-11-03T06:31:49.174Z,5.63
2022-11-03T06:34:30.312Z,6.43
2022-11-03T06:36:59.913Z,5.13
2022-11-03T06:39:27.735Z,7.17
2022-11-03T06:41:55.532Z,5.40
2022-11-03T06:44:25.574Z,11.40
2022-11-03T06:46:57.084Z,5.40
2022-11-03T06:49:30.038Z,7.93
2022-11-03T06:51:59.818Z,6.87
2022-11-03T06:54:27.615Z,9.10
2022-11-03T06:56:55.412Z,7.20
2022-11-03T06:59:23.160Z,21.33
2022-11-03T07:01:56.776Z,11.27
2022-11-03T07:04:28.964Z,8.90
2022-11-03T07:07:01.235Z,12.80
2022-11-03T07:09:29.284Z,19.27
2022-11-03T07:11:58.814Z,10.97
2022-11-03T07:14:29.415Z,11.63
2022-11-03T07:17:02.043Z,19.17
2022-11-03T07:19:35.155Z,20.23
2022-11-03T07:22:07.315Z,14.43
2022-11-03T07:24:39.765Z,9.37
2022-11-03T07:27:18.012Z,8.87
2022-11-03T07:29:46.953Z,10.20
2022-11-03T07:32:19.589Z,10.30
2022-11-03T07:34:48.731Z,9.63
2022-11-03T07:37:21.092Z,17.50
2022-11-03T07:39:50.769Z,7.20
2022-11-03T07:42:20.857Z,9.50
2022-11-03T07:44:49.670Z,16.10
2022-11-03T07:47:22.913Z,13.60
2022-11-03T07:49:50.677Z,10.37
2022-11-03T07:52:22.339Z,11.33
2022-11-03T07:54:51.300Z,20.93
2022-11-03T07:57:23.648Z,9.67
2022-11-03T07:59:53.708Z,8.80
2022-11-03T08:02:31.817Z,8.50
2022-11-03T08:05:00.140Z,9.10
2022-11-03T08:07:29.010Z,13.07
2022-11-03T08:09:57.150Z,13.53
2022-11-03T08:12:24.988Z,19.70
2022-11-03T08:14:52.748Z,15.30
2022-11-03T08:17:20.507Z,10.53
2022-11-03T08:19:49.624Z,12.23
2022-11-03T08:22:17.385Z,14.73
2022-11-03T08:24:45.225Z,11.50
2022-11-03T08:27:13.025Z,12.77
2022-11-03T08:29:40.860Z,13.80
2022-11-03T08:32:08.594Z,16.10
2022-11-03T08:34:36.363Z,15.33
2022-11-03T08:37:05.480Z,37.33
2022-11-03T08:39:33.266Z,27.77
2022-11-03T08:42:01.043Z,37.50
2022-11-03T08:44:28.815Z,25.00
2022-11-03T08:46:56.573Z,27.60
2022-11-03T08:49:24.388Z,16.57
2022-11-03T08:51:52.127Z,20.50
2022-11-03T08:54:21.202Z,21.93
2022-11-03T08:56:49.359Z,17.33
2022-11-03T08:59:18.007Z,18.70
2022-11-03T09:01:45.897Z,24.57
2022-11-03T09:04:13.791Z,19.03
2022-11-03T09:06:41.862Z,14.77
2022-11-03T09:11:58.707Z,23.63
2022-11-03T09:14:26.495Z,18.07
2022-11-03T09:16:54.305Z,16.43
2022-11-03T09:19:22.217Z,22.50
2022-11-03T09:21:50.003Z,21.03
2022-11-03T09:24:17.779Z,23.07
2022-11-03T09:26:45.550Z,16.50
2022-11-03T09:29:14.755Z,18.70
2022-11-03T09:31:42.511Z,18.37
2022-11-03T09:34:10.243Z,17.70
2022-11-03T09:36:38.319Z,17.80
2022-11-03T09:39:06.349Z,18.40
2022-11-03T09:41:55.797Z,19.33
2022-11-03T09:44:23.783Z,21.50
2022-11-03T09:46:57.708Z,18.57
2022-11-03T09:49:26.283Z,16.40
2022-11-03T09:51:55.702Z,19.90
2022-11-03T09:54:23.568Z,18.37
2022-11-03T09:56:51.501Z,17.60
2022-11-03T09:59:21.124Z,16.67
2022-11-03T10:01:53.368Z,18.80
2022-11-03T10:04:27.229Z,19.47
2022-11-03T10:06:55.864Z,18.83
2022-11-03T10:09:25.194Z,19.30
2022-11-03T10:11:55.708Z,18.30
2022-11-03T10:14:24.779Z,16.03
2022-11-03T10:17:00.037Z,21.80
2022-11-03T10:19:27.836Z,17.80
2022-11-03T10:21:55.664Z,19.30
2022-11-03T10:24:23.444Z,18.10
2022-11-03T10:26:54.519Z,16.23
2022-11-03T10:29:24.429Z,19.63
2022-11-03T10:31:55.063Z,16.50
2022-11-03T10:34:28.715Z,16.70
2022-11-03T10:37:21.170Z,16.80
2022-11-03T10:39:49.862Z,21.20
2022-11-03T10:42:21.023Z,20.53
2022-11-03T10:44:49.606Z,16.57
2022-11-03T10:47:27.748Z,13.37
2022-11-03T10:49:56.166Z,17.53
2022-11-03T10:52:25.892Z,13.97
2022-11-03T10:54:55.729Z,15.63
2022-11-03T10:57:24.169Z,15.10
2022-11-03T10:59:53.612Z,11.43
2022-11-03T11:02:23.055Z,12.03
2022-11-03T11:04:56.237Z,13.37
2022-11-03T11:07:26.763Z,14.17
2022-11-03T11:09:55.445Z,11.10
2022-11-03T11:12:25.160Z,12.97
2022-11-03T11:14:55.859Z,10.97
2022-11-03T11:17:50.002Z,14.37
2022-11-03T11:20:42.363Z,13.70
2022-11-03T11:23:49.893Z,12.47
2022-11-03T11:26:40.004Z,17.57
2022-11-03T11:29:35.108Z,13.90
2022-11-03T11:32:47.446Z,11.67
2022-11-03T11:35:47.427Z,22.40
2022-11-03T11:39:07.126Z,14.93
2022-11-03T11:42:06.878Z,15.53
2022-11-03T11:45:03.311Z,12.80
2022-11-03T11:47:44.627Z,14.33
2022-11-03T11:50:32.519Z,13.60
2022-11-03T11:53:19.764Z,14.97
2022-11-03T11:55:51.888Z,17.00
2022-11-03T11:58:23.664Z,12.00
2022-11-03T12:01:00.480Z,15.83
2022-11-03T12:03:33.046Z,14.07
2022-11-03T12:06:02.537Z,12.63
2022-11-03T12:08:32.100Z,11.50
2022-11-03T12:11:02.605Z,18.13
2022-11-03T12:13:52.492Z,15.40
2022-11-03T12:16:38.938Z,13.77
2022-11-03T12:19:39.266Z,14.10
2022-11-03T12:22:10.039Z,15.80
2022-11-03T12:24:49.670Z,11.57
2022-11-03T12:27:41.929Z,16.17
2022-11-03T12:30:18.709Z,12.93
2022-11-03T12:32:47.244Z,15.33
2022-11-03T12:35:15.431Z,15.83
2022-11-03T12:37:44.574Z,13.23
2022-11-03T12:40:14.521Z,15.00
2022-11-03T12:42:42.336Z,11.03
2022-11-03T12:45:12.575Z,11.40
2022-11-03T12:47:40.344Z,14.83
2022-11-03T12:50:08.420Z,14.87
2022-11-03T12:52:36.200Z,11.60
2022-11-03T12:55:05.801Z,15.13
2022-11-03T12:57:33.975Z,22.90
2022-11-03T13:00:01.716Z,15.87
2022-11-03T13:02:29.520Z,11.90
2022-11-03T13:04:57.403Z,11.97
2022-11-03T13:07:30.385Z,10.63
2022-11-03T13:10:01.318Z,15.40
2022-11-03T13:12:33.703Z,11.60
2022-11-03T13:15:03.190Z,10.80
2022-11-03T13:17:40.345Z,11.67
2022-11-03T13:20:18.805Z,12.03
2022-11-03T13:29:35.729Z,15.67
2022-11-03T13:32:04.210Z,13.13
2022-11-03T13:34:32.174Z,10.93
2022-11-03T13:36:59.905Z,11.23
2022-11-03T13:39:27.690Z,10.77
2022-11-03T13:41:55.435Z,8.83
2022-11-03T13:44:23.280Z,9.70
2022-11-03T13:46:52.813Z,9.27
2022-11-03T13:50:07.758Z,9.07
2022-11-03T13:52:08.986Z,11.38
2022-11-03T14:00:14.042Z,11.57
2022-11-03T14:05:31.925Z,8.90
2022-11-03T14:07:59.695Z,13.70
2022-11-03T14:10:27.433Z,9.03
2022-11-03T14:12:54.257Z,9.30
2022-11-03T14:15:22.031Z,9.87
2022-11-03T14:17:51.110Z,15.33
2022-11-03T14:20:18.948Z,10.98
2022-11-03T14:22:46.764Z,14.00
2022-11-03T14:25:14.608Z,11.27
2022-11-03T14:27:42.406Z,12.87
2022-11-03T14:30:12.504Z,11.03
2022-11-03T14:32:40.379Z,9.07
2022-11-03T14:35:10.370Z,8.40
2022-11-03T14:37:38.868Z,12.60
2022-11-03T14:40:28.355Z,11.90
2022-11-03T14:42:55.123Z,10.33
2022-11-03T14:45:23.108Z,11.73
2022-11-03T14:47:50.943Z,10.87
2022-11-03T14:50:20.025Z,9.80
2022-11-03T14:52:47.757Z,13.80
2022-11-03T14:55:15.680Z,11.83
2022-11-03T14:57:43.494Z,10.60
2022-11-03T15:00:12.176Z,10.00
2022-11-03T15:02:40.043Z,10.63
2022-11-03T15:05:28.303Z,12.00
2022-11-03T15:07:57.407Z,14.00
2022-11-03T15:10:25.182Z,13.10
2022-11-03T15:12:52.976Z,13.57
2022-11-03T15:15:20.739Z,16.23
2022-11-03T15:17:48.520Z,10.07
2022-11-03T15:20:16.593Z,11.50
2022-11-03T15:25:36.359Z,11.07
2022-11-03T15:28:04.687Z,10.90
2022-11-03T15:30:32.923Z,11.90
2022-11-03T15:33:01.108Z,15.20
2022-11-03T15:35:28.975Z,15.43
2022-11-03T15:37:58.816Z,10.83
2022-11-03T15:40:27.025Z,13.80
2022-11-03T15:43:01.856Z,13.50
2022-11-03T15:45:30.647Z,13.50
2022-11-03T15:47:58.675Z,14.27
2022-11-03T15:50:26.701Z,15.13
2022-11-03T15:52:54.772Z,14.27
2022-11-03T15:55:23.075Z,13.30
2022-11-03T15:57:51.105Z,12.30
2022-11-03T16:00:20.760Z,18.43
2022-11-03T16:02:48.656Z,20.20
2022-11-03T16:05:20.975Z,18.27
2022-11-03T16:07:51.708Z,13.73
2022-11-03T16:10:19.476Z,20.07
2022-11-03T16:12:47.316Z,14.87
2022-11-03T16:15:15.162Z,17.17
2022-11-03T16:17:45.638Z,17.47
2022-11-03T16:20:13.953Z,15.40
2022-11-03T16:22:41.833Z,21.43
2022-11-03T16:25:13.370Z,17.27
2022-11-03T16:27:42.035Z,20.43
2022-11-03T16:30:12.506Z,16.00
2022-11-03T16:32:40.259Z,15.00
2022-11-03T16:35:09.986Z,16.83
2022-11-03T16:37:37.785Z,18.47
2022-11-03T16:40:06.414Z,14.63
2022-11-03T16:42:38.209Z,16.47
2022-11-03T16:45:08.225Z,19.10
2022-11-03T16:47:36.025Z,14.13
2022-11-03T16:50:03.819Z,16.70
2022-11-03T16:52:32.930Z,20.53
2022-11-03T16:55:00.719Z,15.17
2022-11-03T16:57:28.458Z,16.20
2022-11-03T16:59:56.284Z,16.33
2022-11-03T17:02:24.116Z,16.20
2022-11-03T17:04:51.984Z,18.53
2022-11-03T17:07:19.784Z,18.43
2022-11-03T17:09:48.918Z,16.70
2022-11-03T17:12:16.703Z,27.97
2022-11-03T17:14:44.439Z,18.60
2022-11-03T17:17:12.222Z,23.47
2022-11-03T17:19:40.099Z,19.37
2022-11-03T17:22:07.875Z,20.20
2022-11-03T17:24:35.757Z,17.53
2022-11-03T17:27:11.226Z,20.40
2022-11-03T17:29:42.449Z,16.13
2022-11-03T17:32:15.083Z,18.30
2022-11-03T17:34:43.123Z,26.40
2022-11-03T17:37:10.951Z,18.03
2022-11-03T17:39:41.192Z,15.63
2022-11-03T17:42:16.738Z,16.43
2022-11-03T17:44:44.938Z,23.80
2022-11-03T17:47:12.742Z,20.43
2022-11-03T17:49:40.478Z,16.93
2022-11-03T17:52:14.380Z,14.37
2022-11-03T17:54:42.816Z,18.03
2022-11-03T17:57:17.729Z,16.33
2022-11-03T17:59:48.353Z,16.07
2022-11-03T18:02:18.304Z,19.30
2022-11-03T18:04:46.681Z,18.50
2022-11-03T18:07:20.495Z,15.40
2022-11-03T18:09:48.326Z,14.97
2022-11-03T18:12:37.429Z,17.40
2022-11-03T18:15:06.407Z,20.73
2022-11-03T18:17:34.288Z,22.50
2022-11-03T18:20:02.093Z,17.53
2022-11-03T18:22:29.867Z,13.50
2022-11-03T18:24:57.655Z,16.57
2022-11-03T18:27:26.806Z,15.03
2022-11-03T18:29:54.616Z,18.10
2022-11-03T18:32:22.845Z,15.13
2022-11-03T18:34:50.587Z,15.30
2022-11-03T18:37:19.003Z,16.03
2022-11-03T18:39:46.740Z,16.60
2022-11-03T18:42:16.308Z,17.67
2022-11-03T18:44:45.539Z,17.00
2022-11-03T18:47:13.288Z,15.77
2022-11-03T18:49:41.226Z,16.40
2022-11-03T18:52:14.786Z,13.03
2022-11-03T18:54:46.163Z,20.77
2022-11-03T18:57:14.507Z,17.87
2022-11-03T18:59:46.039Z,19.10
2022-11-03T19:02:18.736Z,17.90
2022-11-03T19:04:47.373Z,16.80
2022-11-03T19:07:18.024Z,17.07
2022-11-03T19:09:46.470Z,20.57
2022-11-03T19:12:16.256Z,13.57
2022-11-03T19:14:47.637Z,26.00
2022-11-03T19:17:25.143Z,17.33
2022-11-03T19:19:53.903Z,16.50
2022-11-03T19:22:23.220Z,16.63
2022-11-03T19:24:51.042Z,15.83
2022-11-03T19:27:22.451Z,17.20
2022-11-03T19:29:51.603Z,13.30
2022-11-03T19:32:23.173Z,12.30
2022-11-03T19:34:55.999Z,20.40
2022-11-03T19:37:23.790Z,13.67
2022-11-03T19:39:51.666Z,15.57
2022-11-03T19:42:30.879Z,21.63
2022-11-03T19:45:02.092Z,14.17
2022-11-03T19:47:33.199Z,15.63
2022-11-03T19:50:02.374Z,15.60
2022-11-03T19:52:32.302Z,12.80
2022-11-03T19:55:02.600Z,14.13
2022-11-03T19:57:30.378Z,25.20
2022-11-03T19:59:59.704Z,14.27
2022-11-03T20:02:28.093Z,15.50
2022-11-03T20:04:56.107Z,22.70
2022-11-03T20:07:30.967Z,14.27
2022-11-03T20:09:59.673Z,19.43
2022-11-03T20:12:27.463Z,17.90
2022-11-03T20:14:55.212Z,16.47
2022-11-03T20:17:24.575Z,11.97
2022-11-03T20:19:53.175Z,20.70
2022-11-03T20:22:27.169Z,17.87
2022-11-03T20:24:58.493Z,19.47
2022-11-03T20:27:26.320Z,20.33
2022-11-03T20:29:54.128Z,13.77
2022-11-03T20:32:21.871Z,19.30
2022-11-03T20:34:51.054Z,16.73
2022-11-03T20:37:20.426Z,19.20
2022-11-03T20:39:49.320Z,18.10
2022-11-03T20:42:21.925Z,18.13
2022-11-03T20:44:49.812Z,19.80
2022-11-03T20:47:18.551Z,15.80
2022-11-03T20:49:46.788Z,19.67
2022-11-03T20:52:16.481Z,13.90
2022-11-03T20:54:44.414Z,14.67
2022-11-03T20:57:13.609Z,15.80
2022-11-03T20:59:41.672Z,15.30
2022-11-03T21:02:12.118Z,16.03
2022-11-03T21:04:40.350Z,12.50
2022-11-03T21:07:10.612Z,14.00
2022-11-03T21:09:39.842Z,17.83
2022-11-03T21:12:12.457Z,15.70
2022-11-03T21:15:01.903Z,19.10
2022-11-03T21:17:47.344Z,17.47
2022-11-03T21:20:15.203Z,14.50
2022-11-03T21:22:52.912Z,13.77
2022-11-03T21:25:24.598Z,15.40
2022-11-03T21:27:54.140Z,13.50
2022-11-03T21:30:22.904Z,13.90
2022-11-03T21:32:50.699Z,11.40
2022-11-03T21:35:22.037Z,16.17
2022-11-03T21:37:49.921Z,11.37
2022-11-03T21:40:17.865Z,11.87
2022-11-03T21:43:04.656Z,15.33
2022-11-03T21:45:32.716Z,12.17
2022-11-03T21:48:18.581Z,12.47
2022-11-03T21:50:46.512Z,12.93
2022-11-03T21:53:14.400Z,13.00
2022-11-03T21:55:42.317Z,11.00
2022-11-03T21:58:11.395Z,11.83
2022-11-03T22:00:39.182Z,15.53
2022-11-03T22:03:07.235Z,14.20
2022-11-03T22:05:35.279Z,12.00
2022-11-03T22:08:03.084Z,14.87
2022-11-03T22:10:30.898Z,11.23
2022-11-03T22:12:58.680Z,13.37
2022-11-03T22:15:45.146Z,11.50
2022-11-03T22:18:13.150Z,14.00
2022-11-03T22:20:58.853Z,17.37
2022-11-03T22:23:44.298Z,18.43
2022-11-03T22:26:31.168Z,13.97
2022-11-03T22:29:17.048Z,17.27
2022-11-03T22:31:46.155Z,16.67
2022-11-03T22:34:32.099Z,19.73
2022-11-03T22:36:59.848Z,19.87
2022-11-03T22:39:45.294Z,18.77
2022-11-03T22:42:30.759Z,19.23
2022-11-03T22:45:15.905Z,18.53
2022-11-03T22:47:44.966Z,18.90
2022-11-03T22:50:12.760Z,19.20
2022-11-03T22:52:40.535Z,16.97
2022-11-03T22:55:07.937Z,16.07
2022-11-03T22:57:35.670Z,11.67
2022-11-03T23:02:46.743Z,15.53
2022-11-03T23:05:14.641Z,12.77
2022-11-03T23:07:42.476Z,11.53
2022-11-03T23:10:10.786Z,12.83
2022-11-03T23:12:38.565Z,17.90
2022-11-03T23:15:24.693Z,10.40
2022-11-03T23:18:11.432Z,13.90
2022-11-03T23:20:56.938Z,13.50
2022-11-03T23:23:42.424Z,13.87
2022-11-03T23:26:10.346Z,9.40
2022-11-03T23:28:38.472Z,9.90
2022-11-03T23:31:06.603Z,7.53
2022-11-03T23:33:35.877Z,9.93
2022-11-03T23:36:04.725Z,10.47
2022-11-03T23:38:33.467Z,16.93
2022-11-03T23:41:04.774Z,7.10
2022-11-03T23:43:32.633Z,7.77
2022-11-03T23:46:17.793Z,8.43
2022-11-03T23:48:47.032Z,8.90
2022-11-03T23:51:15.956Z,10.30
2022-11-03T23:53:44.466Z,7.50
2022-11-03T23:56:30.752Z,10.70
2022-11-03T23:58:58.887Z,5.20
